Time;durP1;ratioP1;P1;durP2;ratioP2;P2;SDS_P1;SDS_P2;PMS_P1;PMS_P2;Temp;Humidity;BMP_temperature;BMP_pressure;BME280_temperature;BME280_humidity;BME280_pressure;Samples;Min_cycle;Max_cycle;Signal;HPM_P1;HPM_P2
2021/05/10 00:00:45;;;;;;;6.35;3.00;;;;;;;;;;4909747;29;20048;-58
2021/05/10 00:03:12;;;;;;;6.03;2.38;;;;;;;;;;4907883;29;20058;-60
2021/05/10 00:05:39;;;;;;;5.68;2.65;;;;;;;;;;4930389;29;20054;-57
2021/05/10 00:08:06;;;;;;;5.22;2.60;;;;;;;;;;4911038;29;20050;-56
2021/05/10 00:10:32;;;;;;;8.02;2.53;;;;;;;;;;4917087;29;20042;-62
2021/05/10 00:12:58;;;;;;;6.38;2.70;;;;;;;;;;4910921;29;20051;-60
2021/05/10 00:15:24;;;;;;;12.35;3.47;;;;;;;;;;4941029;29;20076;-59
2021/05/10 00:17:50;;;;;;;10.60;3.38;;;;;;;;;;4928252;29;20067;-63
2021/05/10 00:20:17;;;;;;;6.95;3.15;;;;;;;;;;4909848;29;20063;-60
2021/05/10 00:22:43;;;;;;;6.10;2.70;;;;;;;;;;4909623;29;20044;-61
2021/05/10 00:25:11;;;;;;;6.93;2.90;;;;;;;;;;4906628;29;20139;-60
2021/05/10 00:27:37;;;;;;;8.65;3.08;;;;;;;;;;4908433;29;20044;-61
2021/05/10 00:30:04;;;;;;;6.45;3.38;;;;;;;;;;4922513;29;20059;-59
2021/05/10 00:32:30;;;;;;;6.13;3.00;;;;;;;;;;4910131;29;20040;-60
2021/05/10 00:34:56;;;;;;;7.45;3.13;;;;;;;;;;4913035;29;20109;-60
2021/05/10 00:37:22;;;;;;;7.13;3.17;;;;;;;;;;4928970;29;20063;-61
2021/05/10 00:39:48;;;;;;;7.50;3.05;;;;;;;;;;4936693;29;20043;-63
2021/05/10 00:42:15;;;;;;;7.65;3.20;;;;;;;;;;4908383;29;20047;-62
2021/05/10 00:44:41;;;;;;;8.40;3.50;;;;;;;;;;4908711;29;20055;-62
2021/05/10 00:47:07;;;;;;;8.02;3.65;;;;;;;;;;4927874;29;20047;-62
2021/05/10 00:49:33;;;;;;;8.55;3.22;;;;;;;;;;4925856;29;20035;-61
2021/05/10 00:51:58;;;;;;;6.43;3.17;;;;;;;;;;4908171;29;20043;-62
2021/05/10 00:54:25;;;;;;;7.45;3.22;;;;;;;;;;4908771;29;20052;-59
2021/05/10 00:56:51;;;;;;;8.40;3.53;;;;;;;;;;4907592;29;20044;-63
2021/05/10 00:59:17;;;;;;;8.93;3.63;;;;;;;;;;4909638;29;20048;-59
2021/05/10 01:01:43;;;;;;;5.68;3.13;;;;;;;;;;4905391;29;20123;-58
2021/05/10 01:04:09;;;;;;;9.73;3.35;;;;;;;;;;4919016;29;20046;-58
2021/05/10 01:06:35;;;;;;;12.48;3.50;;;;;;;;;;4924183;29;20052;-59
2021/05/10 01:09:01;;;;;;;9.38;3.42;;;;;;;;;;4911099;29;20077;-59
2021/05/10 01:11:28;;;;;;;7.78;3.47;;;;;;;;;;4897689;29;20051;-58
2021/05/10 01:13:54;;;;;;;9.85;3.47;;;;;;;;;;4907945;29;20069;-59
2021/05/10 01:16:20;;;;;;;11.18;3.60;;;;;;;;;;4927762;29;20047;-58
2021/05/10 01:18:47;;;;;;;8.90;3.92;;;;;;;;;;4927388;29;20039;-60
2021/05/10 01:21:13;;;;;;;10.25;3.53;;;;;;;;;;4921496;29;20066;-58
2021/05/10 01:23:41;;;;;;;8.55;3.50;;;;;;;;;;4909826;29;20111;-59
2021/05/10 01:26:07;;;;;;;7.13;3.58;;;;;;;;;;4922233;29;20040;-60
2021/05/10 01:28:33;;;;;;;9.25;4.30;;;;;;;;;;4909054;29;20046;-59
2021/05/10 01:30:59;;;;;;;9.13;3.70;;;;;;;;;;4908757;29;20044;-62
2021/05/10 01:33:25;;;;;;;6.75;3.47;;;;;;;;;;4938464;29;20062;-60
2021/05/10 01:35:51;;;;;;;10.23;3.38;;;;;;;;;;4945098;29;20049;-61
2021/05/10 01:38:18;;;;;;;11.23;3.85;;;;;;;;;;4908898;29;20080;-59
2021/05/10 01:40:47;;;;;;;6.97;3.78;;;;;;;;;;4909108;29;20043;-57
2021/05/10 01:43:15;;;;;;;8.48;3.42;;;;;;;;;;4906292;29;20075;-59
2021/05/10 01:45:41;;;;;;;6.63;3.55;;;;;;;;;;4926806;29;20035;-57
2021/05/10 01:48:08;;;;;;;10.02;3.55;;;;;;;;;;4917243;29;20043;-56
2021/05/10 01:50:34;;;;;;;8.45;3.63;;;;;;;;;;4927861;29;20159;-59
2021/05/10 01:53:01;;;;;;;9.20;3.22;;;;;;;;;;4941252;29;20043;-63
2021/05/10 01:55:28;;;;;;;6.60;3.28;;;;;;;;;;4926046;29;20043;-58
2021/05/10 01:57:56;;;;;;;7.93;3.53;;;;;;;;;;4922742;29;20046;-62
2021/05/10 02:00:23;;;;;;;5.83;3.20;;;;;;;;;;4924690;29;20050;-63
2021/05/10 02:02:49;;;;;;;7.18;3.60;;;;;;;;;;4928806;28;20055;-60
2021/05/10 02:05:16;;;;;;;7.50;3.33;;;;;;;;;;4924160;29;20126;-62
2021/05/10 02:07:44;;;;;;;7.18;3.72;;;;;;;;;;4906908;28;20048;-61
2021/05/10 02:10:12;;;;;;;6.95;2.92;;;;;;;;;;4942612;28;20032;-63
2021/05/10 02:12:38;;;;;;;5.95;3.33;;;;;;;;;;4926747;29;20047;-61
2021/05/10 02:15:09;;;;;;;6.82;3.35;;;;;;;;;;4924163;29;20052;-63
2021/05/10 02:17:36;;;;;;;6.07;3.58;;;;;;;;;;4928237;29;20084;-63
2021/05/10 02:20:02;;;;;;;8.57;3.90;;;;;;;;;;4941714;28;20052;-62
2021/05/10 02:22:28;;;;;;;8.35;3.60;;;;;;;;;;4925972;29;20036;-59
2021/05/10 02:24:54;;;;;;;8.93;4.15;;;;;;;;;;4936577;28;20064;-62
2021/05/10 02:27:20;;;;;;;7.63;3.78;;;;;;;;;;4926982;29;20047;-62
2021/05/10 02:29:46;;;;;;;7.95;4.07;;;;;;;;;;4924015;29;20083;-61
2021/05/10 02:32:13;;;;;;;8.82;3.55;;;;;;;;;;4926855;29;20039;-60
2021/05/10 02:34:39;;;;;;;7.38;3.85;;;;;;;;;;4946826;28;20046;-58
2021/05/10 02:37:05;;;;;;;10.68;4.28;;;;;;;;;;4945926;28;20043;-62
2021/05/10 02:39:31;;;;;;;8.73;3.80;;;;;;;;;;4941532;28;20035;-59
2021/05/10 02:41:57;;;;;;;6.15;3.50;;;;;;;;;;4944365;28;20043;-61
2021/05/10 02:44:23;;;;;;;7.57;3.53;;;;;;;;;;4941969;28;20048;-62
2021/05/10 02:46:49;;;;;;;7.25;3.85;;;;;;;;;;4945391;28;20050;-60
2021/05/10 02:49:16;;;;;;;7.18;3.10;;;;;;;;;;4961137;28;20098;-60
2021/05/10 02:51:42;;;;;;;7.57;3.20;;;;;;;;;;4924972;29;20050;-59
2021/05/10 02:54:08;;;;;;;7.80;3.20;;;;;;;;;;4928268;28;20043;-59
2021/05/10 02:56:34;;;;;;;7.05;3.15;;;;;;;;;;4941650;28;20035;-59
2021/05/10 02:59:00;;;;;;;6.38;2.97;;;;;;;;;;4947112;28;20130;-58
2021/05/10 03:01:25;;;;;;;8.88;2.90;;;;;;;;;;4961110;28;20035;-57
2021/05/10 03:03:51;;;;;;;5.22;2.83;;;;;;;;;;4932556;29;20060;-58
2021/05/10 03:06:18;;;;;;;5.45;2.83;;;;;;;;;;4912597;29;20040;-59
2021/05/10 03:08:44;;;;;;;9.43;2.72;;;;;;;;;;4909151;29;20040;-61
2021/05/10 03:11:10;;;;;;;6.97;2.75;;;;;;;;;;4931164;28;20036;-57
2021/05/10 03:13:37;;;;;;;6.07;2.65;;;;;;;;;;4928032;29;20044;-62
2021/05/10 03:16:03;;;;;;;6.57;2.80;;;;;;;;;;4924168;29;20050;-60
2021/05/10 03:18:29;;;;;;;5.43;2.55;;;;;;;;;;4928535;29;20028;-60
2021/05/10 03:20:55;;;;;;;7.88;2.67;;;;;;;;;;4943240;29;20047;-62
2021/05/10 03:23:22;;;;;;;5.25;2.50;;;;;;;;;;4931082;29;20047;-61
2021/05/10 03:25:48;;;;;;;4.88;2.42;;;;;;;;;;4919672;29;20100;-63
2021/05/10 03:28:14;;;;;;;4.20;2.15;;;;;;;;;;4929334;28;20051;-65
2021/05/10 03:30:40;;;;;;;7.63;2.30;;;;;;;;;;4929716;29;20036;-61
2021/05/10 03:33:07;;;;;;;5.18;2.22;;;;;;;;;;4906311;29;20261;-60
2021/05/10 03:35:33;;;;;;;5.05;2.05;;;;;;;;;;4909223;29;20040;-63
2021/05/10 03:37:59;;;;;;;7.47;2.20;;;;;;;;;;4921523;29;20043;-61
2021/05/10 03:40:26;;;;;;;7.07;2.25;;;;;;;;;;4945658;29;20091;-61
2021/05/10 03:42:53;;;;;;;4.68;2.30;;;;;;;;;;4912866;29;20090;-65
2021/05/10 03:45:19;;;;;;;7.03;2.22;;;;;;;;;;4908777;29;20111;-62
2021/05/10 03:47:45;;;;;;;4.25;2.10;;;;;;;;;;4907777;29;20072;-60
2021/05/10 03:50:12;;;;;;;3.20;1.67;;;;;;;;;;4909526;29;20073;-61
2021/05/10 03:52:38;;;;;;;5.90;2.17;;;;;;;;;;4914334;29;20063;-66
2021/05/10 03:55:05;;;;;;;3.95;1.73;;;;;;;;;;4946609;29;20036;-63
2021/05/10 03:57:32;;;;;;;4.20;1.55;;;;;;;;;;4919311;29;20048;-62
2021/05/10 03:59:58;;;;;;;6.75;1.50;;;;;;;;;;4926192;29;20044;-64
2021/05/10 04:02:24;;;;;;;3.50;1.60;;;;;;;;;;4922555;29;20055;-66
2021/05/10 04:04:54;;;;;;;5.40;1.50;;;;;;;;;;4909312;29;20052;-62
2021/05/10 04:10:24;;;;;;;3.78;1.45;;;;;;;;;;4922750;29;20047;-66
2021/05/10 04:15:36;;;;;;;5.78;1.30;;;;;;;;;;4894354;29;20087;-65
2021/05/10 04:18:02;;;;;;;3.58;1.30;;;;;;;;;;4893435;29;20044;-60
2021/05/10 04:20:28;;;;;;;3.50;1.20;;;;;;;;;;4928726;29;20084;-61
2021/05/10 04:22:54;;;;;;;3.80;1.30;;;;;;;;;;4925446;29;20057;-61
2021/05/10 04:25:22;;;;;;;4.80;1.50;;;;;;;;;;4926874;29;20119;-63
2021/05/10 04:27:48;;;;;;;3.13;1.10;;;;;;;;;;4909494;29;20044;-59
2021/05/10 04:30:16;;;;;;;4.38;1.30;;;;;;;;;;4899144;29;20040;-64
2021/05/10 04:32:42;;;;;;;6.30;1.40;;;;;;;;;;4909531;29;20126;-61
2021/05/10 04:35:08;;;;;;;3.15;1.15;;;;;;;;;;4907504;29;20098;-59
2021/05/10 04:37:34;;;;;;;4.35;1.40;;;;;;;;;;4909279;29;20048;-62
2021/05/10 04:40:00;;;;;;;3.15;1.25;;;;;;;;;;4922501;29;20044;-60
2021/05/10 04:42:26;;;;;;;3.42;1.10;;;;;;;;;;4908379;29;20131;-57
2021/05/10 04:44:53;;;;;;;6.63;1.20;;;;;;;;;;4907098;29;20080;-60
2021/05/10 04:47:20;;;;;;;3.40;1.10;;;;;;;;;;4908785;29;20051;-61
2021/05/10 04:49:46;;;;;;;5.88;1.50;;;;;;;;;;4905236;29;20055;-61
2021/05/10 04:52:12;;;;;;;2.83;1.38;;;;;;;;;;4910290;29;20059;-59
2021/05/10 04:54:38;;;;;;;3.85;1.45;;;;;;;;;;4905679;29;20058;-63
2021/05/10 04:57:04;;;;;;;1.92;1.10;;;;;;;;;;4928300;29;20039;-62
2021/05/10 04:59:30;;;;;;;3.05;1.15;;;;;;;;;;4929633;29;20121;-61
2021/05/10 05:01:56;;;;;;;2.50;1.25;;;;;;;;;;4906651;29;20051;-64
2021/05/10 05:04:23;;;;;;;8.70;1.20;;;;;;;;;;4908354;29;20048;-60
2021/05/10 05:06:49;;;;;;;6.65;1.65;;;;;;;;;;4905185;29;20111;-60
2021/05/10 05:09:15;;;;;;;8.88;2.40;;;;;;;;;;4900380;29;20055;-64
2021/05/10 05:11:41;;;;;;;5.25;1.30;;;;;;;;;;4918605;29;20067;-64
2021/05/10 05:14:08;;;;;;;2.55;1.20;;;;;;;;;;4910902;29;20081;-61
2021/05/10 05:16:34;;;;;;;3.28;1.05;;;;;;;;;;4916624;29;20054;-62
2021/05/10 05:19:00;;;;;;;4.60;1.42;;;;;;;;;;4907085;29;20032;-63
2021/05/10 05:21:27;;;;;;;5.35;1.60;;;;;;;;;;4905446;29;20051;-60
2021/05/10 05:23:53;;;;;;;6.00;1.20;;;;;;;;;;4920534;29;20052;-64
2021/05/10 05:26:19;;;;;;;9.20;1.15;;;;;;;;;;4903135;29;20174;-64
2021/05/10 05:28:45;;;;;;;4.35;1.10;;;;;;;;;;4907516;29;20072;-61
2021/05/10 05:31:11;;;;;;;3.22;1.00;;;;;;;;;;4904330;29;20051;-63
2021/05/10 05:33:37;;;;;;;5.65;1.05;;;;;;;;;;4906947;29;20054;-60
2021/05/10 05:36:05;;;;;;;4.35;1.10;;;;;;;;;;4907137;29;20076;-65
2021/05/10 05:38:35;;;;;;;1.80;0.90;;;;;;;;;;4900381;29;20048;-65
2021/05/10 05:41:01;;;;;;;3.47;1.08;;;;;;;;;;4906015;29;20059;-60
2021/05/10 05:43:27;;;;;;;8.05;2.08;;;;;;;;;;4901123;29;20042;-61
2021/05/10 05:45:54;;;;;;;10.20;3.33;;;;;;;;;;4908167;29;20130;-61
2021/05/10 05:48:20;;;;;;;5.22;1.13;;;;;;;;;;4914979;29;20098;-61
2021/05/10 05:50:46;;;;;;;4.30;0.95;;;;;;;;;;4905794;29;20040;-62
2021/05/10 05:53:13;;;;;;;3.25;1.20;;;;;;;;;;4901723;29;20040;-62
2021/05/10 05:55:41;;;;;;;8.55;0.80;;;;;;;;;;4905846;29;20048;-60
2021/05/10 05:58:07;;;;;;;3.25;0.90;;;;;;;;;;4902562;29;20048;-64
2021/05/10 06:00:33;;;;;;;9.65;1.17;;;;;;;;;;4906109;29;20075;-63
2021/05/10 06:02:59;;;;;;;7.22;2.97;;;;;;;;;;4903768;29;20056;-58
2021/05/10 06:05:26;;;;;;;6.18;2.40;;;;;;;;;;4907941;29;20141;-64
2021/05/10 06:07:52;;;;;;;4.53;1.10;;;;;;;;;;4910693;29;20147;-60
2021/05/10 06:10:21;;;;;;;1.85;1.13;;;;;;;;;;4905913;29;20071;-61
2021/05/10 06:12:49;;;;;;;4.85;1.15;;;;;;;;;;4908318;29;20044;-65
2021/05/10 06:15:15;;;;;;;;;;;;;;;;;;4899031;29;20067;-61
2021/05/10 06:17:41;;;;;;;2.53;0.93;;;;;;;;;;4904805;29;19938;-62
2021/05/10 06:20:08;;;;;;;2.03;0.85;;;;;;;;;;4916364;29;20043;-64
2021/05/10 06:22:35;;;;;;;1.83;1.00;;;;;;;;;;4924918;29;20114;-63
2021/05/10 06:25:02;;;;;;;8.30;1.25;;;;;;;;;;4921661;29;20067;-60
2021/05/10 06:27:28;;;;;;;4.28;1.17;;;;;;;;;;4910904;29;20306;-64
2021/05/10 06:29:54;;;;;;;2.58;1.00;;;;;;;;;;4913601;29;20047;-60
2021/05/10 06:32:20;;;;;;;2.03;0.90;;;;;;;;;;4892993;29;20040;-61
2021/05/10 06:34:48;;;;;;;1.80;0.90;;;;;;;;;;4903769;29;20043;-61
2021/05/10 06:37:19;;;;;;;1.85;0.90;;;;;;;;;;4932411;29;20032;-63
2021/05/10 06:39:44;;;;;;;4.93;0.90;;;;;;;;;;4919712;29;20040;-62
2021/05/10 06:42:11;;;;;;;1.15;0.90;;;;;;;;;;4911295;29;20123;-65
2021/05/10 06:44:36;;;;;;;4.00;1.00;;;;;;;;;;4924784;29;20047;-65
2021/05/10 06:47:06;;;;;;;4.10;0.98;;;;;;;;;;4909395;29;20044;-64
2021/05/10 06:49:32;;;;;;;3.38;1.00;;;;;;;;;;4906502;29;20099;-61
2021/05/10 06:51:58;;;;;;;1.33;0.60;;;;;;;;;;4899942;29;20060;-60
2021/05/10 06:54:24;;;;;;;1.88;0.60;;;;;;;;;;4909693;29;20054;-63
2021/05/10 06:56:51;;;;;;;3.53;0.70;;;;;;;;;;4906890;29;20060;-63
2021/05/10 06:59:17;;;;;;;2.05;0.50;;;;;;;;;;4901033;29;20091;-61
2021/05/10 07:01:43;;;;;;;1.88;0.70;;;;;;;;;;4906450;29;20099;-60
2021/05/10 07:04:10;;;;;;;1.95;0.98;;;;;;;;;;4927244;29;20126;-60
2021/05/10 07:06:38;;;;;;;1.65;0.82;;;;;;;;;;4905086;29;20055;-65
2021/05/10 07:09:04;;;;;;;2.22;0.80;;;;;;;;;;4926838;29;20051;-63
2021/05/10 07:11:30;;;;;;;0.77;0.60;;;;;;;;;;4905744;29;20069;-64
2021/05/10 07:13:57;;;;;;;1.70;0.80;;;;;;;;;;4909885;29;20043;-63
2021/05/10 07:16:23;;;;;;;2.58;0.60;;;;;;;;;;4906827;29;20044;-63
2021/05/10 07:18:49;;;;;;;2.17;0.80;;;;;;;;;;4908797;29;20123;-64
2021/05/10 07:21:16;;;;;;;1.80;1.08;;;;;;;;;;4910862;29;20059;-62
2021/05/10 07:23:42;;;;;;;3.13;0.70;;;;;;;;;;4928578;29;20040;-63
2021/05/10 07:26:08;;;;;;;3.88;1.00;;;;;;;;;;4915450;29;20047;-64
2021/05/10 07:28:34;;;;;;;2.55;0.80;;;;;;;;;;4909851;29;20055;-60
2021/05/10 07:31:00;;;;;;;2.15;0.80;;;;;;;;;;4907194;29;20111;-63
2021/05/10 07:33:27;;;;;;;3.40;0.70;;;;;;;;;;4901262;29;20040;-65
2021/05/10 07:35:53;;;;;;;1.80;0.77;;;;;;;;;;4909100;29;20048;-65
2021/05/10 07:38:20;;;;;;;5.47;1.00;;;;;;;;;;4908588;29;20054;-64
2021/05/10 07:40:46;;;;;;;1.83;0.90;;;;;;;;;;4909821;29;20067;-63
2021/05/10 07:43:12;;;;;;;2.70;0.98;;;;;;;;;;4919578;29;20043;-60
2021/05/10 07:45:38;;;;;;;2.47;0.93;;;;;;;;;;4928520;29;20040;-61
2021/05/10 07:48:05;;;;;;;2.00;0.80;;;;;;;;;;4923918;29;20050;-58
2021/05/10 07:50:31;;;;;;;5.20;1.10;;;;;;;;;;4928125;29;20048;-59
2021/05/10 07:52:57;;;;;;;2.67;0.93;;;;;;;;;;4916267;29;20040;-60
2021/05/10 07:55:27;;;;;;;3.17;1.00;;;;;;;;;;4908601;29;20060;-60
2021/05/10 07:57:53;;;;;;;3.15;0.95;;;;;;;;;;4906236;29;20061;-61
2021/05/10 08:00:23;;;;;;;5.97;1.05;;;;;;;;;;4909258;29;20039;-58
2021/05/10 08:02:52;;;;;;;2.33;0.80;;;;;;;;;;4905828;29;20040;-59
2021/05/10 08:05:18;;;;;;;1.52;0.73;;;;;;;;;;4909219;29;20126;-61
2021/05/10 08:07:44;;;;;;;1.75;0.80;;;;;;;;;;4906079;29;20051;-60
2021/05/10 08:10:11;;;;;;;4.22;0.90;;;;;;;;;;4927262;29;20071;-62
2021/05/10 08:12:37;;;;;;;1.52;0.80;;;;;;;;;;4909485;29;20044;-60
2021/05/10 08:15:04;;;;;;;2.40;0.98;;;;;;;;;;4928926;29;20109;-59
2021/05/10 08:17:32;;;;;;;1.60;0.88;;;;;;;;;;4945300;28;20046;-61
2021/05/10 08:19:58;;;;;;;7.57;2.25;;;;;;;;;;4904284;29;20079;-63
2021/05/10 08:22:24;;;;;;;2.22;1.15;;;;;;;;;;4909597;29;20060;-62
2021/05/10 08:24:50;;;;;;;4.30;1.35;;;;;;;;;;4906932;29;20054;-63
2021/05/10 08:27:16;;;;;;;2.40;1.10;;;;;;;;;;4907739;29;20048;-61
2021/05/10 08:29:43;;;;;;;3.00;0.98;;;;;;;;;;4906915;29;20050;-60
2021/05/10 08:32:09;;;;;;;3.80;1.10;;;;;;;;;;4908400;29;20100;-59
2021/05/10 08:34:35;;;;;;;2.15;0.90;;;;;;;;;;4906118;29;20048;-62
2021/05/10 08:37:01;;;;;;;3.22;1.10;;;;;;;;;;4926908;29;20044;-61
2021/05/10 08:39:30;;;;;;;1.42;0.93;;;;;;;;;;4921366;29;20043;-63
2021/05/10 08:41:56;;;;;;;2.85;0.90;;;;;;;;;;4910105;29;20095;-61
2021/05/10 08:44:22;;;;;;;1.90;0.90;;;;;;;;;;4908916;29;20055;-62
2021/05/10 08:46:49;;;;;;;2.78;1.00;;;;;;;;;;4928320;29;20057;-62
2021/05/10 08:49:19;;;;;;;1.85;0.95;;;;;;;;;;4924151;29;20043;-63
2021/05/10 08:51:45;;;;;;;5.85;1.20;;;;;;;;;;4926344;29;20114;-64
2021/05/10 08:54:20;;;;;;;2.63;1.08;;;;;;;;;;4928153;29;20055;-63
2021/05/10 08:56:46;;;;;;;7.65;1.23;;;;;;;;;;4872384;29;20076;-62
2021/05/10 08:59:12;;;;;;;2.70;1.20;;;;;;;;;;4889032;29;20060;-60
2021/05/10 09:01:49;;;;;;;4.07;1.20;;;;;;;;;;4902569;29;20052;-64
2021/05/10 09:04:15;;;;;;;5.03;1.10;;;;;;;;;;4908759;29;20163;-64
2021/05/10 09:06:41;;;;;;;2.08;1.15;;;;;;;;;;4920869;29;20059;-65
2021/05/10 09:09:08;;;;;;;3.30;1.30;;;;;;;;;;4926318;28;20047;-63
2021/05/10 09:11:35;;;;;;;3.10;1.30;;;;;;;;;;4911210;29;20107;-62
2021/05/10 09:14:03;;;;;;;3.13;1.10;;;;;;;;;;4893011;29;20040;-61
2021/05/10 09:16:34;;;;;;;3.45;1.13;;;;;;;;;;4906084;29;20051;-62
2021/05/10 09:19:01;;;;;;;3.92;1.27;;;;;;;;;;4908078;29;20048;-63
2021/05/10 09:21:28;;;;;;;4.93;1.15;;;;;;;;;;4905467;29;20047;-64
2021/05/10 09:23:55;;;;;;;1.80;1.00;;;;;;;;;;4926168;29;20124;-60
2021/05/10 09:26:27;;;;;;;1.85;1.00;;;;;;;;;;4911123;29;20039;-63
2021/05/10 09:28:53;;;;;;;2.03;0.95;;;;;;;;;;4928542;29;20047;-60
2021/05/10 09:31:19;;;;;;;5.18;1.00;;;;;;;;;;4924082;29;20106;-61
2021/05/10 09:33:46;;;;;;;1.70;0.98;;;;;;;;;;4927460;29;20055;-62
2021/05/10 09:36:31;;;;;;;2.40;1.10;;;;;;;;;;4921347;29;20158;-62
2021/05/10 09:38:59;;;;;;;3.72;1.20;;;;;;;;;;4907479;29;20120;-65
2021/05/10 09:41:25;;;;;;;2.70;1.00;;;;;;;;;;4921321;29;20059;-61
2021/05/10 09:43:57;;;;;;;8.18;1.10;;;;;;;;;;4907633;29;20044;-61
2021/05/10 09:46:22;;;;;;;2.90;1.10;;;;;;;;;;4905160;29;20040;-61
2021/05/10 09:48:48;;;;;;;2.08;1.00;;;;;;;;;;4909463;29;20050;-64
2021/05/10 09:51:17;;;;;;;1.58;0.98;;;;;;;;;;4910925;29;20040;-62
2021/05/10 09:53:47;;;;;;;4.05;1.38;;;;;;;;;;4922658;29;20044;-59
2021/05/10 09:56:27;;;;;;;2.05;1.02;;;;;;;;;;4907061;29;20040;-64
2021/05/10 09:58:54;;;;;;;6.32;1.30;;;;;;;;;;4939132;29;20048;-63
2021/05/10 10:01:20;;;;;;;4.15;1.20;;;;;;;;;;4925497;29;20054;-60
2021/05/10 10:03:46;;;;;;;1.95;1.10;;;;;;;;;;4923386;29;20044;-62
2021/05/10 10:06:13;;;;;;;1.80;1.20;;;;;;;;;;4942937;29;20091;-62
2021/05/10 10:08:41;;;;;;;4.50;1.50;;;;;;;;;;4923385;29;20047;-63
2021/05/10 10:11:08;;;;;;;8.45;1.60;;;;;;;;;;4926408;29;20047;-63
2021/05/10 10:13:34;;;;;;;3.85;1.27;;;;;;;;;;4914266;29;20044;-62
2021/05/10 10:16:01;;;;;;;4.40;1.52;;;;;;;;;;4903746;29;20039;-63
2021/05/10 10:18:27;;;;;;;5.03;1.50;;;;;;;;;;4928446;29;20040;-63
2021/05/10 10:20:54;;;;;;;3.20;1.55;;;;;;;;;;4926612;29;20118;-62
2021/05/10 10:23:22;;;;;;;4.07;1.50;;;;;;;;;;4916536;29;20039;-64
2021/05/10 10:25:49;;;;;;;2.15;1.40;;;;;;;;;;4905873;29;20060;-63
2021/05/10 10:28:17;;;;;;;5.50;1.80;;;;;;;;;;4905077;29;20044;-61
2021/05/10 10:30:46;;;;;;;4.25;1.67;;;;;;;;;;4906468;29;20052;-66
2021/05/10 10:33:14;;;;;;;5.07;1.63;;;;;;;;;;4905516;29;20036;-61
2021/05/10 10:35:43;;;;;;;4.65;1.77;;;;;;;;;;4907525;29;20033;-64
2021/05/10 10:38:09;;;;;;;3.35;1.70;;;;;;;;;;4907590;29;20052;-64
2021/05/10 10:40:35;;;;;;;5.07;1.90;;;;;;;;;;4903665;29;20047;-65
2021/05/10 10:43:16;;;;;;;5.15;1.63;;;;;;;;;;4906139;29;20055;-65
2021/05/10 10:45:43;;;;;;;3.45;1.70;;;;;;;;;;4919627;29;20040;-60
2021/05/10 10:48:09;;;;;;;5.10;1.73;;;;;;;;;;4924154;29;20096;-63
2021/05/10 10:50:55;;;;;;;3.58;1.80;;;;;;;;;;4917544;29;20040;-63
2021/05/10 10:53:40;;;;;;;6.95;2.00;;;;;;;;;;4926297;29;20040;-62
2021/05/10 10:56:06;;;;;;;5.35;2.10;;;;;;;;;;4904722;29;20048;-63
2021/05/10 10:58:31;;;;;;;5.80;2.15;;;;;;;;;;4925148;29;20044;-56
2021/05/10 11:01:03;;;;;;;3.15;1.75;;;;;;;;;;4904491;29;20059;-60
2021/05/10 11:03:29;;;;;;;7.32;2.15;;;;;;;;;;4923154;29;20044;-59
2021/05/10 11:05:56;;;;;;;7.63;2.05;;;;;;;;;;4916645;29;20039;-60
2021/05/10 11:08:38;;;;;;;3.85;1.60;;;;;;;;;;4926578;29;20043;-59
2021/05/10 11:11:04;;;;;;;10.32;1.50;;;;;;;;;;4910343;29;20048;-59
2021/05/10 11:13:40;;;;;;;4.18;1.58;;;;;;;;;;4927854;29;20092;-56
2021/05/10 11:16:08;;;;;;;6.10;1.52;;;;;;;;;;4923234;29;20040;-59
2021/05/10 11:18:35;;;;;;;;;;;;;;;;;;4910839;29;20040;-59
2021/05/10 11:21:01;;;;;;;3.78;1.45;;;;;;;;;;4907822;29;19939;-57
2021/05/10 11:23:31;;;;;;;3.78;1.60;;;;;;;;;;4910790;29;20039;-60
2021/05/10 11:25:58;;;;;;;3.03;1.40;;;;;;;;;;4924595;29;20044;-60
2021/05/10 11:28:57;;;;;;;3.92;1.42;;;;;;;;;;4912754;29;20036;-59
2021/05/10 11:31:33;;;;;;;3.97;1.50;;;;;;;;;;4913745;29;20042;-58
2021/05/10 11:34:07;;;;;;;4.78;1.25;;;;;;;;;;4928667;29;20043;-63
2021/05/10 11:36:33;;;;;;;2.53;1.17;;;;;;;;;;4934919;29;20040;-63
2021/05/10 11:39:00;;;;;;;5.10;1.65;;;;;;;;;;4910080;29;20042;-62
2021/05/10 11:41:27;;;;;;;5.28;1.50;;;;;;;;;;4906466;29;20052;-58
2021/05/10 11:43:57;;;;;;;6.15;2.10;;;;;;;;;;4910807;29;20059;-62
2021/05/10 11:46:40;;;;;;;8.05;2.20;;;;;;;;;;4908503;29;20044;-62
2021/05/10 11:49:07;;;;;;;8.32;2.15;;;;;;;;;;4946336;29;20039;-63
2021/05/10 11:51:37;;;;;;;4.15;1.60;;;;;;;;;;4921154;29;20050;-56
2021/05/10 11:54:04;;;;;;;4.30;1.50;;;;;;;;;;4908478;29;20044;-63
2021/05/10 11:56:32;;;;;;;7.35;1.85;;;;;;;;;;4905785;29;20044;-62
2021/05/10 11:59:00;;;;;;;5.60;1.80;;;;;;;;;;4909433;29;20036;-60
2021/05/10 12:01:33;;;;;;;6.03;1.77;;;;;;;;;;4909495;29;20115;-58
2021/05/10 12:04:14;;;;;;;7.18;2.08;;;;;;;;;;4929709;29;20063;-58
2021/05/10 12:06:40;;;;;;;4.53;2.20;;;;;;;;;;4928075;29;20060;-60
2021/05/10 12:09:06;;;;;;;5.30;2.47;;;;;;;;;;4922242;29;20074;-61
2021/05/10 12:11:37;;;;;;;6.90;2.85;;;;;;;;;;4928818;29;20127;-61
2021/05/10 12:14:14;;;;;;;8.20;3.05;;;;;;;;;;4908143;29;20055;-61
2021/05/10 12:16:55;;;;;;;8.18;2.60;;;;;;;;;;4909086;29;20131;-61
2021/05/10 12:19:22;;;;;;;4.85;2.45;;;;;;;;;;4904004;29;20056;-60
2021/05/10 12:22:03;;;;;;;6.43;2.67;;;;;;;;;;4909109;29;20048;-63
2021/05/10 12:24:32;;;;;;;6.72;2.38;;;;;;;;;;4903814;29;20036;-60
2021/05/10 12:26:58;;;;;;;6.32;2.60;;;;;;;;;;4925928;29;20040;-60
2021/05/10 12:29:24;;;;;;;9.18;2.80;;;;;;;;;;4915544;28;20156;-59
2021/05/10 12:31:50;;;;;;;4.45;2.33;;;;;;;;;;4910737;29;20031;-60
2021/05/10 12:34:18;;;;;;;4.93;2.72;;;;;;;;;;4915122;29;20096;-60
2021/05/10 12:36:45;;;;;;;8.30;3.05;;;;;;;;;;4926565;29;20053;-61
2021/05/10 12:39:13;;;;;;;9.95;3.20;;;;;;;;;;4913770;29;20099;-59
2021/05/10 12:41:39;;;;;;;7.75;2.42;;;;;;;;;;4906512;29;20040;-58
2021/05/10 12:44:09;;;;;;;7.00;2.60;;;;;;;;;;4928027;28;20079;-61
2021/05/10 12:46:42;;;;;;;6.13;2.90;;;;;;;;;;4927108;29;20050;-59
2021/05/10 12:49:21;;;;;;;5.28;2.75;;;;;;;;;;4924485;29;20106;-60
2021/05/10 12:51:53;;;;;;;5.47;2.90;;;;;;;;;;4928385;29;20342;-59
2021/05/10 12:54:19;;;;;;;5.25;2.63;;;;;;;;;;4919014;29;20047;-59
2021/05/10 12:56:45;;;;;;;8.75;3.17;;;;;;;;;;4909768;29;20047;-59
2021/05/10 12:59:12;;;;;;;5.28;3.00;;;;;;;;;;4904717;29;20115;-59
2021/05/10 13:01:38;;;;;;;6.72;3.28;;;;;;;;;;4926674;29;20120;-60
2021/05/10 13:04:06;;;;;;;8.85;3.17;;;;;;;;;;4907282;29;20060;-59
2021/05/10 13:06:33;;;;;;;10.20;3.00;;;;;;;;;;4909132;29;20068;-59
2021/05/10 13:09:00;;;;;;;7.88;2.92;;;;;;;;;;4910796;29;20058;-56
2021/05/10 13:11:34;;;;;;;6.28;3.00;;;;;;;;;;4922416;28;20050;-53
2021/05/10 13:14:03;;;;;;;8.57;3.20;;;;;;;;;;4908730;29;20048;-57
2021/05/10 13:16:40;;;;;;;7.68;3.28;;;;;;;;;;4918495;29;20051;-61
2021/05/10 13:22:17;;;;;;;7.25;3.20;;;;;;;;;;4918153;29;20059;-60
2021/05/10 13:33:02;;;;;;;9.18;4.22;;;;;;;;;;4926588;29;20043;-59
2021/05/10 13:35:37;;;;;;;7.20;3.50;;;;;;;;;;4924830;29;20071;-59
2021/05/10 13:38:03;;;;;;;5.65;3.20;;;;;;;;;;4926676;29;20048;-60
2021/05/10 13:40:31;;;;;;;7.35;3.38;;;;;;;;;;4926830;29;20035;-59
2021/05/10 13:43:03;;;;;;;6.03;3.22;;;;;;;;;;4906556;29;20040;-59
2021/05/10 13:45:29;;;;;;;10.23;3.20;;;;;;;;;;4908325;29;20057;-60
2021/05/10 13:47:55;;;;;;;7.15;3.17;;;;;;;;;;4905781;29;20056;-60
2021/05/10 13:50:21;;;;;;;9.68;3.28;;;;;;;;;;4907611;29;20043;-61
2021/05/10 13:52:47;;;;;;;7.88;3.25;;;;;;;;;;4905473;29;20143;-59
2021/05/10 13:55:13;;;;;;;8.50;3.25;;;;;;;;;;4909128;29;20039;-59
2021/05/10 13:57:40;;;;;;;6.03;3.08;;;;;;;;;;4905179;29;20040;-59
2021/05/10 14:00:08;;;;;;;5.72;3.08;;;;;;;;;;4908607;29;20123;-60
2021/05/10 14:02:34;;;;;;;7.53;2.63;;;;;;;;;;4912810;29;20042;-59
2021/05/10 14:05:02;;;;;;;8.10;3.15;;;;;;;;;;4926525;29;20051;-59
2021/05/10 14:07:28;;;;;;;7.47;2.85;;;;;;;;;;4917252;29;20044;-60
2021/05/10 14:09:54;;;;;;;5.30;2.92;;;;;;;;;;4924620;29;20054;-60
2021/05/10 14:12:20;;;;;;;6.70;3.15;;;;;;;;;;4905182;29;20048;-57
2021/05/10 14:14:47;;;;;;;6.35;2.95;;;;;;;;;;4925473;29;20164;-60
2021/05/10 14:17:13;;;;;;;6.30;2.80;;;;;;;;;;4905026;29;20040;-61
2021/05/10 14:19:40;;;;;;;9.70;2.40;;;;;;;;;;4908069;29;20036;-61
2021/05/10 14:22:05;;;;;;;6.90;2.53;;;;;;;;;;4907168;29;20043;-59
2021/05/10 14:24:32;;;;;;;8.77;2.85;;;;;;;;;;4902031;29;20040;-61
2021/05/10 14:26:58;;;;;;;6.60;2.17;;;;;;;;;;4908031;29;20044;-61
2021/05/10 14:29:24;;;;;;;5.38;2.30;;;;;;;;;;4919598;29;20050;-61
2021/05/10 14:31:51;;;;;;;8.45;2.10;;;;;;;;;;4924928;29;20072;-60
2021/05/10 14:34:18;;;;;;;5.93;1.70;;;;;;;;;;4910297;29;20048;-60
2021/05/10 14:36:44;;;;;;;7.30;1.80;;;;;;;;;;4925833;29;20040;-62
2021/05/10 14:39:11;;;;;;;5.80;1.60;;;;;;;;;;4904303;29;20036;-62
2021/05/10 14:41:39;;;;;;;10.95;1.83;;;;;;;;;;4888596;29;20052;-60
2021/05/10 14:44:05;;;;;;;5.03;1.65;;;;;;;;;;4904546;29;20064;-59
2021/05/10 14:46:32;;;;;;;3.85;1.40;;;;;;;;;;4929522;29;20039;-59
2021/05/10 14:48:59;;;;;;;3.00;1.13;;;;;;;;;;4921178;29;20119;-60
2021/05/10 14:51:25;;;;;;;5.90;1.20;;;;;;;;;;4910872;29;20036;-60
2021/05/10 14:53:51;;;;;;;6.85;1.20;;;;;;;;;;4906241;29;20051;-60
2021/05/10 14:56:19;;;;;;;7.38;1.25;;;;;;;;;;4910261;29;20036;-59
2021/05/10 14:58:45;;;;;;;5.45;1.20;;;;;;;;;;4907437;29;20043;-58
2021/05/10 15:01:14;;;;;;;4.93;1.20;;;;;;;;;;4909911;29;20048;-59